Latest Weather Observations for Smithton

IDT60801

Issued at 8:35 pm EST Wednesday 27 August 2014 (issued every 30 minutes, with the page automatically refreshed every 10 minutes)

About weather observations | Map of weather stations | Latest weather observations for TAS | Other Formats
Station Details ID: 091292 Name: SMITHTON AERODROME Lat: -40.83 Lon: 145.08 Height: 7.5 m
Data from the previous 72 hours. | See also: Recent months at Smithton
Date/Time
EST
Temp
°C
App
Temp
°C
Dew
Point
Rel
Hum
%
Delta-T
°C
Wind Press
QNH
hPa
Press
MSL
hPa
Rain
since 9 am
mm
Dir
 
Spd
km/h
Gust
km/h
Spd
kts
Gust
kts
27/08:30pm 12.2 9.5 11.6 96 0.3 ENE 17 20 9 11 1028.8 - 0.2
27/08:00pm 12.1 9.0 11.5 96 0.3 ENE 19 24 10 13 1028.7 - 0.2
27/07:30pm 12.3 9.9 11.5 95 0.4 ENE 15 19 8 10 1028.7 - 0.2
27/07:00pm 12.4 9.3 11.5 94 0.5 ENE 19 30 10 16 1028.3 - 0.2
27/06:30pm 12.5 9.1 11.4 93 0.6 ENE 20 26 11 14 1028.2 - 0.2
27/06:00pm 12.9 9.6 11.5 91 0.7 ENE 20 28 11 15 1027.9 1027.9 0.2
27/05:30pm 13.2 9.5 11.4 89 1.0 ENE 22 32 12 17 1027.8 - 0.2
27/05:00pm 13.7 9.5 11.2 85 1.3 ENE 24 33 13 18 1027.5 - 0.2
27/04:30pm 14.5 10.8 11.6 83 1.6 ENE 22 30 12 16 1027.6 - 0.2
27/04:00pm 14.6 10.9 11.6 82 1.6 NE 22 33 12 18 1027.7 - 0.2
27/03:30pm 14.8 10.8 11.8 82 1.6 ENE 24 35 13 19 1027.6 - 0.2
27/03:00pm 14.9 11.0 12.2 84 1.5 ENE 24 32 13 17 1028.0 1028.0 0.2
27/02:30pm 15.4 11.5 12.0 80 1.8 ENE 24 33 13 18 1028.0 - 0.2
27/02:00pm 16.1 11.6 12.7 80 1.9 NE 28 37 15 20 1027.5 - 0.2
27/01:30pm 15.7 11.2 12.5 81 1.8 ENE 28 39 15 21 1027.5 - 0.2
27/01:00pm 15.5 10.8 11.9 79 2.0 ENE 28 37 15 20 1027.7 - 0.2
27/12:30pm 15.1 9.6 11.9 81 1.7 ENE 32 39 17 21 1028.0 - 0.2
27/12:00pm 15.5 10.3 11.7 78 2.0 ENE 30 39 16 21 1028.3 1028.3 0.2
27/11:30am 15.3 9.8 11.9 80 1.8 ENE 32 43 17 23 1028.5 - 0.2
27/11:00am 15.7 10.8 12.6 82 1.7 ENE 30 39 16 21 1028.8 - 0.2
27/10:30am 14.8 9.3 12.3 85 1.4 E 33 43 18 23 1028.8 - 0.2
27/10:00am 14.5 9.6 12.4 87 1.1 ENE 30 39 16 21 1028.8 - 0.2
27/09:30am 14.3 9.7 12.3 88 1.1 ENE 28 37 15 20 1028.9 - 0.2
27/09:00am 13.8 9.2 12.2 90 0.9 E 28 41 15 22 1028.8 1028.8 0.2
27/08:30am 12.9 8.2 12.0 94 0.5 E 28 37 15 20 1028.6 - 0.2
27/08:00am 12.5 8.2 12.0 97 0.3 E 26 33 14 18 1028.5 - 0.2
27/07:30am 11.9 7.9 11.7 99 0.1 E 24 32 13 17 1028.1 - 0.2
27/07:00am 11.5 7.3 11.2 98 0.2 E 24 32 13 17 1027.9 - 0.2
27/06:30am 11.4 7.6 11.2 99 0.1 E 22 28 12 15 1027.8 - 0.2
27/06:00am 11.4 8.0 11.1 98 0.2 E 20 28 11 15 1027.8 1027.8 0.2
27/05:30am 11.4 8.0 11.1 98 0.2 E 20 26 11 14 1027.8 - 0.2
27/05:00am 11.7 8.3 11.4 98 0.2 E 20 30 11 16 1027.7 - 0.2
27/04:30am 12.0 8.0 11.7 98 0.2 ENE 24 32 13 17 1027.5 - 0.2
27/04:00am 11.6 8.2 11.3 98 0.2 ENE 20 28 11 15 1027.6 - 0.2
27/03:30am 11.7 8.3 11.2 97 0.3 ENE 20 26 11 14 1027.9 - 0.2
27/03:00am 11.7 8.5 11.4 98 0.2 E 19 26 10 14 1028.0 1028.0 0.2
27/02:30am 11.9 8.6 11.6 98 0.2 ENE 20 30 11 16 1028.0 - 0.2
27/02:00am 11.9 8.6 11.6 98 0.2 E 20 28 11 15 1028.3 - 0.2
27/01:30am 12.0 8.9 11.7 98 0.2 ENE 19 26 10 14 1028.5 - 0.2
27/01:00am 11.9 8.5 11.4 97 0.3 E 20 28 11 15 1028.6 - 0.2
27/12:30am 12.0 8.7 11.7 98 0.2 ENE 20 28 11 15 1028.6 - 0.2
27/12:00am 12.1 8.5 11.8 98 0.2 ENE 22 30 12 16 1028.6 1028.6 0.0
 
Date/Time
EST
Temp
°C
App
Temp
°C
Dew
Point
Rel
Hum
%
Delta-T
°C
Wind Press
QNH
hPa
Press
MSL
hPa
Rain
since 9 am
mm
Dir
 
Spd
km/h
Gust
km/h
Spd
kts
Gust
kts
26/11:30pm 12.0 8.4 11.7 98 0.2 ENE 22 28 12 15 1028.8 - 0.0
26/11:00pm 12.1 8.5 11.8 98 0.2 ENE 22 30 12 16 1028.8 - 0.0
26/10:30pm 12.1 8.5 11.8 98 0.2 ENE 22 30 12 16 1028.6 - 0.0
26/10:00pm 11.8 8.5 11.5 98 0.2 ENE 20 28 11 15 1028.9 - 0.0
26/09:30pm 11.9 8.6 11.7 99 0.1 ENE 20 28 11 15 1029.0 - 0.0
26/09:00pm 11.7 8.9 11.5 99 0.1 E 17 22 9 12 1029.3 1029.3 0.0
26/08:30pm 11.7 9.3 11.5 99 0.1 E 15 24 8 13 1029.2 - 0.0
26/08:00pm 11.9 9.6 11.7 99 0.1 E 15 19 8 10 1029.1 - 0.0
26/07:30pm 12.0 9.3 11.7 98 0.2 E 17 24 9 13 1028.9 - 0.0
26/07:00pm 12.2 9.6 11.9 98 0.2 ENE 17 20 9 11 1028.9 - 0.0
26/06:30pm 12.2 9.5 11.6 96 0.3 ENE 17 20 9 11 1028.6 - 0.0
26/06:00pm 12.9 9.8 12.1 95 0.4 ENE 20 26 11 14 1028.6 1028.6 0.0
26/05:30pm 13.2 10.6 12.1 93 0.6 ENE 17 20 9 11 1028.8 - 0.0
26/05:00pm 13.3 10.3 12.0 92 0.7 ENE 19 26 10 14 1028.5 - 0.0
26/04:30pm 13.5 10.4 12.1 91 0.8 ENE 20 26 11 14 1028.5 - 0.0
26/04:00pm 13.6 9.7 12.2 91 0.8 ENE 24 32 13 17 1028.5 - 0.0
26/03:30pm 13.9 10.4 12.1 89 1.0 ENE 22 33 12 18 1028.7 - 0.0
26/03:00pm 14.2 10.3 12.2 88 1.1 ENE 24 30 13 16 1028.7 1028.7 0.0
26/02:30pm 14.6 10.6 11.9 84 1.5 ENE 24 32 13 17 1029.0 - 0.0
26/02:00pm 14.9 11.7 11.9 82 1.6 ENE 20 30 11 16 1029.2 - 0.0
26/01:30pm 14.8 11.6 11.8 82 1.6 ENE 20 26 11 14 1029.4 - 0.0
26/01:00pm 14.6 11.6 11.9 84 1.5 ENE 19 26 10 14 1029.8 - 0.0
26/12:30pm 14.3 11.1 12.0 86 1.2 E 20 26 11 14 1030.2 - 0.0
26/12:00pm 13.6 10.0 11.8 89 1.0 ENE 22 28 12 15 1030.5 1030.5 0.0
26/11:30am 13.4 9.3 11.6 89 1.0 ENE 24 30 13 16 1030.6 - 0.0
26/11:00am 13.4 9.7 11.6 89 1.0 ENE 22 28 12 15 1031.0 - 0.0
26/10:30am 13.6 9.9 11.5 87 1.1 ENE 22 28 12 15 1031.1 - 0.0
26/10:00am 13.3 11.8 12.0 92 0.7 ENE 11 15 6 8 1031.1 - 0.0
26/09:30am 12.9 10.2 11.8 93 0.6 ENE 17 22 9 12 1031.3 - 0.0
26/09:00am 12.7 10.5 12.1 96 0.3 ENE 15 20 8 11 1031.3 1031.3 0.0
26/08:30am 12.6 10.1 12.4 99 0.1 ENE 17 22 9 12 1031.2 - 0.0
26/08:00am 12.1 10.3 12.1 100 0.0 ENE 13 17 7 9 1031.0 - 0.0
26/07:30am 10.5 9.3 10.3 99 0.1 S 7 9 4 5 1030.7 - 0.0
26/07:00am 10.0 8.7 9.9 99 0.1 S 7 9 4 5 1030.4 - 0.0
26/06:30am 9.7 7.9 9.6 99 0.0 S 9 11 5 6 1030.2 - 0.0
26/06:00am 9.7 8.9 9.6 99 0.0 S 4 9 2 5 1029.9 1029.9 0.0
26/05:30am 9.3 7.8 9.2 99 0.0 SSW 7 9 4 5 1029.9 - 0.0
26/05:00am 9.2 7.3 9.1 99 0.0 SSW 9 11 5 6 1030.0 - 0.0
26/04:30am 8.8 6.4 8.7 99 0.0 S 11 11 6 6 1029.9 - 0.0
26/04:00am 8.5 6.4 8.4 99 0.0 S 9 9 5 5 1029.9 - 0.0
26/03:30am 8.4 6.9 8.3 99 0.0 S 6 11 3 6 1029.8 - 0.0
26/03:00am 7.2 5.4 7.1 99 0.0 S 6 7 3 4 1029.8 1029.8 0.0
26/02:30am 5.5 3.3 5.4 99 0.0 S 6 9 3 5 1030.0 - 0.0
26/02:00am 5.7 4.3 5.6 99 0.0 S 2 7 1 4 1030.2 - 0.0
26/01:30am 6.1 3.5 6.0 99 0.0 S 9 11 5 6 1030.4 - 0.0
26/01:00am 6.4 3.8 6.3 99 0.0 S 9 11 5 6 1030.6 - 0.0
26/12:30am 5.3 2.1 5.2 99 0.0 SSW 11 13 6 7 1030.5 - 0.0
26/12:00am 7.1 6.0 7.0 99 0.0 S 2 9 1 5 1030.6 1030.6 0.0
 
Date/Time
EST
Temp
°C
App
Temp
°C
Dew
Point
Rel
Hum
%
Delta-T
°C
Wind Press
QNH
hPa
Press
MSL
hPa
Rain
since 9 am
mm
Dir
 
Spd
km/h
Gust
km/h
Spd
kts
Gust
kts
25/11:30pm 7.9 6.1 7.8 99 0.0 S 7 11 4 6 1030.5 - 0.0
25/11:00pm 7.7 5.4 7.6 99 0.0 N 9 11 5 6 1030.6 - 0.0
25/10:30pm 6.4 3.8 6.3 99 0.0 N 9 11 5 6 1030.5 - 0.0
25/10:00pm 7.3 5.3 7.2 99 0.0 N 7 9 4 5 1030.6 - 0.0
25/09:30pm 7.0 4.5 6.7 98 0.1 N 9 11 5 6 1030.7 - 0.0
25/09:00pm 6.9 4.4 6.5 97 0.2 N 9 11 5 6 1030.6 1030.6 0.0
25/08:30pm 6.9 4.3 6.3 96 0.3 N 9 11 5 6 1030.4 - 0.0
25/08:00pm 8.6 7.3 7.8 95 0.4 N 4 6 2 3 1030.2 - 0.0
25/07:30pm 8.8 6.6 8.0 95 0.4 N 9 11 5 6 1030.2 - 0.0
25/07:00pm 8.6 5.9 7.4 92 0.6 N 11 11 6 6 1030.0 - 0.0
25/06:30pm 10.6 10.3 8.7 88 0.9 CALM 0 2 0 1 1030.0 - 0.0
25/06:00pm 11.3 9.8 8.5 83 1.4 N 6 7 3 4 1029.8 1029.8 0.0
25/05:30pm 13.1 11.6 9.0 76 2.1 N 7 9 4 5 1029.5 - 0.0
25/05:00pm 14.0 12.1 9.2 73 2.4 N 9 11 5 6 1029.4 - 0.0
25/04:30pm 14.1 11.3 8.7 70 2.7 N 13 15 7 8 1029.3 - 0.0
25/04:00pm 14.5 12.1 8.5 67 3.0 NNE 11 15 6 8 1029.0 - 0.0
25/03:30pm 14.9 11.7 8.6 66 3.2 N 15 19 8 10 1028.8 - 0.0
25/03:00pm 15.2 11.6 8.4 64 3.4 NNE 17 20 9 11 1028.6 1028.6 0.0
25/02:30pm 16.2 12.7 8.7 61 3.8 NNE 17 20 9 11 1028.5 - 0.0
25/02:00pm 16.3 13.5 8.5 60 4.0 N 13 19 7 10 1028.4 - 0.0
25/01:30pm 16.1 14.9 8.1 59 4.0 SE 4 9 2 5 1028.5 - 0.0
25/01:00pm 16.8 15.4 9.0 60 4.0 ESE 6 13 3 7 1028.7 - 0.0
25/12:30pm 16.1 14.5 7.8 58 4.2 ENE 6 13 3 7 1029.0 - 0.0
25/12:00pm 15.3 13.5 7.3 59 3.9 SSE 6 13 3 7 1029.4 1029.4 0.0
25/11:30am 15.2 13.4 7.2 59 3.9 ESE 6 13 3 7 1029.7 - 0.0
25/11:00am 14.3 12.5 8.0 66 3.1 S 7 11 4 6 1029.8 - 0.0
25/10:30am 13.7 10.7 7.9 68 2.9 S 13 15 7 8 1029.8 - 0.0
25/10:00am 12.9 10.1 8.4 74 2.2 S 13 15 7 8 1030.0 - 0.0
25/09:30am 11.3 8.0 8.2 81 1.5 S 15 20 8 11 1030.0 - 0.0
25/09:00am 9.8 6.2 8.4 91 0.7 S 17 26 9 14 1030.0 1030.0 0.6
25/08:30am 8.4 6.3 8.3 99 0.0 SSW 9 13 5 7 1029.7 - 0.6
25/08:00am 6.6 3.7 6.5 99 0.0 S 11 15 6 8 1029.6 - 0.6
25/07:30am 4.2 2.9 3.9 98 0.1 CALM 0 0 0 0 1029.0 - 0.6
25/07:00am 4.4 3.1 4.1 98 0.1 CALM 0 0 0 0 1028.8 - 0.6
25/06:30am 5.5 1.6 5.2 98 0.1 S 15 15 8 8 1028.4 - 0.6
25/06:00am 5.3 2.5 5.0 98 0.1 SSW 9 11 5 6 1027.9 1027.9 0.6
25/05:30am 4.5 1.1 4.1 97 0.2 S 11 15 6 8 1027.6 - 0.6
25/05:00am 5.3 2.8 4.6 95 0.3 SSE 7 13 4 7 1027.0 - 0.6
25/04:30am 7.1 4.3 6.8 98 0.1 SSE 11 15 6 8 1026.9 - 0.6
25/04:00am 5.9 3.1 5.2 95 0.3 SSE 9 11 5 6 1026.8 - 0.6
25/03:30am 7.3 5.1 6.1 92 0.5 SSE 7 9 4 5 1026.9 - 0.6
25/03:00am 8.9 6.2 7.5 91 0.7 SSE 11 17 6 9 1026.7 1026.7 0.6
25/02:30am 10.0 7.2 8.6 91 0.7 SSE 13 19 7 10 1026.7 - 0.6
25/02:00am 10.2 8.2 8.6 90 0.8 SSE 9 13 5 7 1026.7 - 0.6
25/01:30am 10.3 7.2 8.9 91 0.7 SSE 15 20 8 11 1026.5 - 0.6
25/01:00am 10.1 7.0 8.9 92 0.6 SE 15 20 8 11 1026.3 - 0.6
25/12:30am 10.0 6.9 8.8 92 0.6 SSE 15 22 8 12 1026.3 - 0.6
25/12:00am 10.0 6.9 8.9 93 0.5 SE 15 20 8 11 1026.2 1026.2 0.6
 
Date/Time
EST
Temp
°C
App
Temp
°C
Dew
Point
Rel
Hum
%
Delta-T
°C
Wind Press
QNH
hPa
Press
MSL
hPa
Rain
since 9 am
mm
Dir
 
Spd
km/h
Gust
km/h
Spd
kts
Gust
kts
24/11:30pm 10.1 7.2 9.5 96 0.3 ESE 15 19 8 10 1025.7 - 0.4
24/11:00pm 10.1 7.2 9.5 96 0.3 ESE 15 19 8 10 1025.8 - 0.4
24/10:30pm 9.4 6.7 8.9 97 0.2 ESE 13 15 7 8 1025.5 - 0.4
24/10:00pm 8.7 6.5 7.8 94 0.4 E 9 13 5 7 1025.5 - 0.4
24/09:30pm 9.4 6.5 8.3 93 0.5 ESE 13 19 7 10 1025.3 - 0.4
24/09:00pm 9.5 5.9 8.4 93 0.5 ESE 17 22 9 12 1025.0 1025.0 0.4

Other Formats:

Comma delimited format used in spreadsheet applications
http://www.bom.gov.au/fwo/IDT60801/IDT60801.94953.axf

JavaScript Object Notation format (JSON) in row-major order
http://www.bom.gov.au/fwo/IDT60801/IDT60801.94953.json